createdAt,value
2018-11-06T00:00:18.532Z,34.70
2018-11-06T00:02:47.223Z,36.30
2018-11-06T00:05:16.493Z,33.47
2018-11-06T00:07:44.764Z,32.60
2018-11-06T00:10:12.602Z,31.20
2018-11-06T00:12:40.436Z,34.00
2018-11-06T00:15:08.227Z,33.43
2018-11-06T00:17:36.191Z,35.33
2018-11-06T00:20:06.811Z,39.60
2018-11-06T00:22:34.512Z,34.33
2018-11-06T00:25:02.261Z,33.93
2018-11-06T00:27:29.970Z,32.63
2018-11-06T00:29:57.702Z,34.47
2018-11-06T00:32:25.404Z,33.60
2018-11-06T00:34:53.146Z,36.30
2018-11-06T00:37:20.845Z,30.87
2018-11-06T00:39:48.957Z,34.17
2018-11-06T00:42:16.632Z,34.13
2018-11-06T00:44:44.361Z,34.37
2018-11-06T00:47:11.971Z,34.37
2018-11-06T00:49:39.706Z,32.77
2018-11-06T00:52:07.206Z,36.50
2018-11-06T00:54:34.926Z,35.13
2018-11-06T00:57:02.709Z,39.30
2018-11-06T00:59:30.325Z,33.00
2018-11-06T01:01:59.948Z,38.30
2018-11-06T01:04:27.793Z,34.50
2018-11-06T01:06:55.523Z,37.57
2018-11-06T01:09:23.251Z,34.63
2018-11-06T01:11:51.010Z,32.03
2018-11-06T01:14:18.711Z,37.27
2018-11-06T01:16:46.325Z,35.20
2018-11-06T01:19:14.092Z,37.03
2018-11-06T01:21:41.852Z,34.73
2018-11-06T01:24:09.941Z,35.10
2018-11-06T01:26:37.772Z,38.00
2018-11-06T01:29:05.511Z,39.53
2018-11-06T01:31:33.278Z,36.47
2018-11-06T01:34:00.983Z,38.80
2018-11-06T01:36:28.766Z,39.33
2018-11-06T01:38:56.539Z,37.43
2018-11-06T01:41:24.253Z,38.60
2018-11-06T01:43:51.870Z,34.60
2018-11-06T01:46:19.617Z,42.60
2018-11-06T01:48:47.351Z,43.10
2018-11-06T01:51:15.134Z,40.53
2018-11-06T01:53:42.889Z,38.60
2018-11-06T01:56:10.640Z,39.23
2018-11-06T01:58:38.385Z,39.30
2018-11-06T02:01:06.135Z,42.27
2018-11-06T02:03:33.958Z,39.83
2018-11-06T02:06:03.569Z,38.53
2018-11-06T02:08:31.326Z,40.73
2018-11-06T02:10:59.125Z,44.13
2018-11-06T02:13:26.934Z,37.97
2018-11-06T02:15:54.711Z,37.47
2018-11-06T02:18:22.474Z,38.87
2018-11-06T02:20:50.279Z,36.30
2018-11-06T02:23:17.994Z,36.97
2018-11-06T02:25:45.759Z,37.10
2018-11-06T02:28:13.483Z,40.83
2018-11-06T02:30:41.190Z,31.43
2018-11-06T02:33:08.945Z,37.60
2018-11-06T02:35:36.696Z,39.20
2018-11-06T02:38:04.722Z,33.13
2018-11-06T02:40:32.446Z,37.83
2018-11-06T02:43:00.273Z,34.97
2018-11-06T02:45:27.966Z,38.77
2018-11-06T02:47:57.577Z,35.77
2018-11-06T02:50:25.315Z,38.80
2018-11-06T02:52:53.054Z,34.63
2018-11-06T02:55:20.738Z,33.90
2018-11-06T02:57:48.410Z,35.17
2018-11-06T03:00:17.026Z,33.70
2018-11-06T03:02:45.696Z,33.33
2018-11-06T03:05:13.409Z,35.20
2018-11-06T03:07:41.525Z,35.63
2018-11-06T03:10:10.639Z,29.93
2018-11-06T03:12:39.183Z,37.23
2018-11-06T03:15:07.641Z,32.57
2018-11-06T03:17:35.406Z,33.57
2018-11-06T03:20:03.176Z,31.13
2018-11-06T03:22:30.919Z,31.67
2018-11-06T03:24:58.640Z,29.53
2018-11-06T03:27:26.422Z,28.03
2018-11-06T03:29:55.324Z,29.30
2018-11-06T03:32:23.097Z,28.17
2018-11-06T03:34:50.810Z,28.67
2018-11-06T03:37:18.422Z,29.10
2018-11-06T03:39:46.182Z,27.10
2018-11-06T03:42:13.945Z,29.30
2018-11-06T03:44:41.538Z,26.27
2018-11-06T03:47:09.365Z,32.83
2018-11-06T03:49:37.105Z,24.77
2018-11-06T03:52:05.172Z,24.67
2018-11-06T03:54:32.874Z,25.23
2018-11-06T03:57:00.624Z,26.90
2018-11-06T03:59:28.367Z,29.93
2018-11-06T04:01:56.128Z,25.47
2018-11-06T04:04:23.880Z,22.03
2018-11-06T04:06:51.663Z,23.27
2018-11-06T04:09:19.444Z,24.23
2018-11-06T04:11:47.223Z,24.87
2018-11-06T04:14:14.940Z,23.77
2018-11-06T04:16:42.652Z,24.10
2018-11-06T04:19:10.305Z,23.50
2018-11-06T04:21:39.109Z,22.23
2018-11-06T04:24:08.416Z,23.77
2018-11-06T04:26:36.766Z,25.63
2018-11-06T04:29:05.434Z,25.03
2018-11-06T04:31:33.529Z,25.03
2018-11-06T04:34:01.397Z,21.70
2018-11-06T04:36:29.772Z,25.03
2018-11-06T04:38:57.717Z,22.90
2018-11-06T04:41:25.869Z,22.97
2018-11-06T04:43:53.622Z,26.40
2018-11-06T04:46:21.413Z,21.17
2018-11-06T04:48:50.034Z,20.73
2018-11-06T04:51:17.765Z,22.33
2018-11-06T04:53:45.576Z,23.97
2018-11-06T04:56:13.358Z,26.30
2018-11-06T04:58:41.016Z,24.90
2018-11-06T05:01:08.732Z,21.27
2018-11-06T05:03:41.091Z,22.97
2018-11-06T05:06:08.839Z,21.70
2018-11-06T05:08:36.544Z,22.57
2018-11-06T05:11:04.427Z,25.97
2018-11-06T05:13:32.274Z,24.23
2018-11-06T05:15:59.971Z,22.67
2018-11-06T05:18:27.733Z,23.07
2018-11-06T05:20:55.462Z,22.07
2018-11-06T05:23:23.232Z,23.70
2018-11-06T05:25:51.033Z,23.53
2018-11-06T05:28:18.762Z,24.60
2018-11-06T05:30:46.506Z,23.00
2018-11-06T05:33:14.276Z,23.03
2018-11-06T05:35:41.994Z,25.53
2018-11-06T05:38:09.713Z,25.53
2018-11-06T05:40:48.873Z,21.90
2018-11-06T05:43:16.644Z,28.67
2018-11-06T05:45:44.520Z,26.90
2018-11-06T05:48:12.220Z,24.63
2018-11-06T05:50:39.867Z,26.87
2018-11-06T05:53:07.568Z,25.37
2018-11-06T05:55:35.333Z,25.13
2018-11-06T05:58:03.079Z,21.80
2018-11-06T06:00:30.894Z,30.57
2018-11-06T06:02:58.583Z,29.23
2018-11-06T06:05:26.413Z,25.17
2018-11-06T06:07:54.190Z,24.53
2018-11-06T06:10:21.917Z,29.97
2018-11-06T06:12:49.548Z,27.57
2018-11-06T06:15:17.399Z,26.47
2018-11-06T06:17:45.147Z,29.10
2018-11-06T06:20:12.991Z,30.50
2018-11-06T06:22:40.899Z,27.90
2018-11-06T06:25:08.800Z,26.57
2018-11-06T06:27:37.013Z,33.07
2018-11-06T06:30:07.167Z,27.17
2018-11-06T06:32:34.885Z,29.23
2018-11-06T06:35:02.753Z,31.47
2018-11-06T06:37:30.396Z,27.27
2018-11-06T06:40:00.087Z,30.20
2018-11-06T06:42:27.969Z,32.60
2018-11-06T06:44:55.707Z,32.43
2018-11-06T06:47:23.295Z,29.53
2018-11-06T06:49:51.082Z,31.37
2018-11-06T06:52:18.834Z,31.30
2018-11-06T06:54:46.618Z,31.07
2018-11-06T06:57:14.356Z,32.67
2018-11-06T06:59:42.494Z,34.87
2018-11-06T07:02:10.187Z,31.90
2018-11-06T07:04:37.818Z,33.67
2018-11-06T07:07:05.565Z,26.97
2018-11-06T07:09:33.825Z,35.00
2018-11-06T07:12:01.601Z,30.10
2018-11-06T07:14:29.386Z,33.90
2018-11-06T07:16:57.099Z,29.90
2018-11-06T07:19:24.732Z,30.20
2018-11-06T07:21:52.442Z,29.43
2018-11-06T07:24:20.159Z,30.20
2018-11-06T07:26:47.861Z,27.07
2018-11-06T07:29:15.669Z,31.13
2018-11-06T07:31:43.495Z,31.33
2018-11-06T07:34:11.300Z,30.73
2018-11-06T07:36:39.008Z,29.03
2018-11-06T07:39:09.127Z,30.03
2018-11-06T07:41:37.405Z,29.77
2018-11-06T07:44:05.135Z,34.67
2018-11-06T07:46:32.871Z,34.77
2018-11-06T07:49:00.440Z,32.03
2018-11-06T07:51:28.226Z,27.83
2018-11-06T07:53:56.021Z,30.40
2018-11-06T07:56:23.919Z,29.53
2018-11-06T07:58:51.372Z,35.50
2018-11-06T08:01:19.059Z,29.20
2018-11-06T08:03:46.767Z,30.97
2018-11-06T08:06:14.548Z,31.70
2018-11-06T08:08:42.354Z,28.40
2018-11-06T08:11:10.011Z,31.17
2018-11-06T08:13:37.843Z,33.17
2018-11-06T08:16:05.581Z,31.50
2018-11-06T08:18:33.321Z,30.03
2018-11-06T08:21:01.049Z,33.17
2018-11-06T08:23:28.653Z,25.67
2018-11-06T08:25:56.445Z,27.47
2018-11-06T08:28:24.265Z,31.17
2018-11-06T08:30:52.273Z,26.30
2018-11-06T08:33:19.765Z,25.20
2018-11-06T08:35:47.503Z,24.43
2018-11-06T08:38:15.256Z,22.90
2018-11-06T08:40:42.994Z,20.37
2018-11-06T08:43:10.704Z,20.97
2018-11-06T08:45:38.425Z,21.70
2018-11-06T08:48:06.319Z,18.37
2018-11-06T08:50:34.342Z,19.43
2018-11-06T08:53:02.148Z,21.80
2018-11-06T08:55:29.875Z,16.93
2018-11-06T08:57:57.439Z,17.87
2018-11-06T09:00:25.144Z,15.40
2018-11-06T09:02:52.819Z,13.80
2018-11-06T09:05:20.661Z,15.30
2018-11-06T09:07:48.861Z,14.23
2018-11-06T09:10:17.019Z,17.40
2018-11-06T09:12:44.804Z,15.13
2018-11-06T09:15:13.894Z,13.47
2018-11-06T09:17:41.608Z,14.70
2018-11-06T09:20:10.630Z,12.47
2018-11-06T09:22:38.271Z,14.43
2018-11-06T09:25:07.373Z,11.08
2018-11-06T09:27:35.167Z,11.68
2018-11-06T09:30:02.908Z,12.15
2018-11-06T09:32:30.664Z,13.00
2018-11-06T09:34:58.437Z,12.98
2018-11-06T09:37:26.242Z,10.30
2018-11-06T09:39:54.033Z,11.40
2018-11-06T09:42:21.762Z,10.25
2018-11-06T09:44:49.602Z,10.40
2018-11-06T09:47:17.382Z,9.60
2018-11-06T09:49:47.036Z,11.03
2018-11-06T09:52:15.073Z,10.00
2018-11-06T09:54:42.829Z,11.30
2018-11-06T09:57:10.596Z,11.22
2018-11-06T09:59:38.428Z,12.30
2018-11-06T10:02:06.444Z,10.13
2018-11-06T10:04:34.280Z,10.20
2018-11-06T10:07:02.189Z,13.88
2018-11-06T10:09:29.833Z,10.03
2018-11-06T10:11:57.586Z,10.03
2018-11-06T10:14:25.324Z,11.05
2018-11-06T10:16:53.096Z,13.90
2018-11-06T10:19:20.803Z,10.43
2018-11-06T10:21:48.527Z,10.08
2018-11-06T10:24:16.297Z,9.90
2018-11-06T10:26:43.932Z,9.38
2018-11-06T10:29:11.548Z,11.73
2018-11-06T10:31:40.791Z,10.00
2018-11-06T10:34:08.605Z,10.13
2018-11-06T10:36:36.224Z,8.98
2018-11-06T10:39:06.031Z,7.58
2018-11-06T10:41:33.909Z,9.10
2018-11-06T10:44:01.653Z,7.40
2018-11-06T10:46:29.249Z,7.83
2018-11-06T10:48:56.929Z,8.05
2018-11-06T10:51:24.674Z,8.28
2018-11-06T10:53:52.389Z,7.45
2018-11-06T10:56:20.166Z,6.70
2018-11-06T10:58:47.911Z,7.95
2018-11-06T11:01:21.365Z,8.60
2018-11-06T11:03:54.654Z,6.53
2018-11-06T11:06:22.544Z,6.97
2018-11-06T11:08:50.384Z,7.05
2018-11-06T11:11:18.121Z,8.58
2018-11-06T11:13:47.620Z,9.43
2018-11-06T11:16:16.005Z,8.78
2018-11-06T11:18:43.837Z,6.53
2018-11-06T11:21:11.436Z,7.08
2018-11-06T11:23:39.181Z,7.28
2018-11-06T11:26:06.989Z,10.23
2018-11-06T11:28:34.968Z,7.92
2018-11-06T11:31:02.617Z,6.12
2018-11-06T11:33:30.358Z,8.08
2018-11-06T11:35:58.081Z,7.80
2018-11-06T11:38:25.846Z,7.17
2018-11-06T11:40:53.422Z,8.10
2018-11-06T11:43:21.145Z,7.05
2018-11-06T11:45:48.947Z,9.53
2018-11-06T11:48:16.748Z,9.68
2018-11-06T11:50:44.310Z,9.98
2018-11-06T11:53:11.954Z,8.00
2018-11-06T11:55:40.750Z,6.30
2018-11-06T11:58:08.588Z,7.00
2018-11-06T12:00:38.361Z,8.43
2018-11-06T12:03:06.151Z,6.60
2018-11-06T12:05:33.878Z,7.42
2018-11-06T12:08:01.741Z,6.53
2018-11-06T12:10:29.512Z,6.05
2018-11-06T12:12:57.360Z,5.55
2018-11-06T12:15:25.114Z,5.47
2018-11-06T12:17:52.737Z,5.55
2018-11-06T12:20:20.422Z,8.98
2018-11-06T12:22:48.321Z,6.60
2018-11-06T12:25:16.233Z,6.58
2018-11-06T12:27:43.747Z,6.92
2018-11-06T12:30:13.279Z,7.33
2018-11-06T12:32:41.449Z,8.10
2018-11-06T12:35:10.205Z,7.28
2018-11-06T12:37:39.832Z,7.70
2018-11-06T12:40:08.982Z,5.47
2018-11-06T12:42:37.349Z,9.43
2018-11-06T12:45:06.238Z,7.47
2018-11-06T12:47:33.836Z,6.25
2018-11-06T12:50:01.473Z,5.50
2018-11-06T12:52:29.367Z,7.30
2018-11-06T12:54:57.098Z,5.97
2018-11-06T12:57:24.819Z,8.08
2018-11-06T12:59:52.557Z,6.30
2018-11-06T13:02:20.426Z,10.98
2018-11-06T13:04:48.324Z,7.55
2018-11-06T13:07:16.197Z,7.62
2018-11-06T13:09:44.016Z,5.35
2018-11-06T13:12:11.808Z,5.58
2018-11-06T13:14:39.665Z,7.37
2018-11-06T13:17:07.479Z,5.37
2018-11-06T13:19:36.935Z,7.03
2018-11-06T13:22:05.624Z,7.00
2018-11-06T13:24:33.323Z,7.80
2018-11-06T13:27:01.042Z,7.80
2018-11-06T13:29:28.859Z,7.62
2018-11-06T13:31:56.657Z,7.80
2018-11-06T13:34:24.378Z,11.18
2018-11-06T13:36:53.719Z,7.22
2018-11-06T13:39:21.444Z,7.80
2018-11-06T13:41:49.141Z,8.05
2018-11-06T13:44:16.908Z,5.42
2018-11-06T13:46:44.522Z,6.15
2018-11-06T13:49:12.469Z,7.12
2018-11-06T13:51:40.192Z,6.87
2018-11-06T13:54:07.925Z,6.90
2018-11-06T13:56:35.695Z,6.28
2018-11-06T13:59:03.493Z,4.92
2018-11-06T14:01:33.327Z,6.78
2018-11-06T14:04:01.829Z,6.58
2018-11-06T14:06:29.572Z,5.95
2018-11-06T14:08:57.337Z,5.53
2018-11-06T14:11:25.074Z,6.12
2018-11-06T14:13:52.897Z,4.78
2018-11-06T14:16:20.542Z,4.45
2018-11-06T14:18:48.292Z,8.33
2018-11-06T14:21:16.186Z,8.93
2018-11-06T14:23:43.735Z,7.85
2018-11-06T14:26:11.512Z,8.73
2018-11-06T14:28:39.221Z,12.07
2018-11-06T14:31:07.111Z,8.30
2018-11-06T14:33:34.744Z,10.23
2018-11-06T14:36:02.473Z,8.43
2018-11-06T14:38:30.150Z,8.80
2018-11-06T14:40:57.781Z,9.78
2018-11-06T14:43:25.528Z,10.00
2018-11-06T14:45:54.873Z,10.63
2018-11-06T14:48:22.644Z,14.70
2018-11-06T14:50:50.345Z,15.25
2018-11-06T14:53:18.957Z,11.45
2018-11-06T14:55:46.841Z,13.80
2018-11-06T14:58:14.640Z,13.48
2018-11-06T15:00:42.459Z,12.30
2018-11-06T15:03:10.198Z,13.98
2018-11-06T15:05:38.053Z,16.00
2018-11-06T15:08:05.749Z,15.53
2018-11-06T15:10:33.553Z,17.25
2018-11-06T15:13:01.504Z,13.83
2018-11-06T15:15:29.248Z,15.78
2018-11-06T15:17:57.007Z,15.80
2018-11-06T15:20:24.742Z,17.95
2018-11-06T15:22:52.539Z,17.80
2018-11-06T15:25:20.201Z,14.15
2018-11-06T15:27:49.838Z,16.40
2018-11-06T15:30:18.268Z,17.75
2018-11-06T15:32:46.041Z,17.32
2018-11-06T15:35:15.105Z,16.10
2018-11-06T15:37:42.934Z,13.55
2018-11-06T15:40:12.853Z,16.33
2018-11-06T15:42:40.653Z,16.77
2018-11-06T15:45:10.008Z,18.03
2018-11-06T15:47:38.489Z,16.37
2018-11-06T15:50:08.042Z,15.43
2018-11-06T15:52:35.796Z,15.07
2018-11-06T15:55:03.949Z,19.70
2018-11-06T15:57:31.679Z,15.33
2018-11-06T16:00:01.459Z,18.33
2018-11-06T16:02:29.141Z,16.70
2018-11-06T16:04:56.885Z,16.67
2018-11-06T16:07:24.566Z,15.77
2018-11-06T16:09:53.807Z,18.93
2018-11-06T16:12:21.556Z,16.27
2018-11-06T16:14:49.321Z,20.53
2018-11-06T16:17:17.276Z,15.97
2018-11-06T16:19:45.078Z,15.90
2018-11-06T16:22:12.701Z,16.80
2018-11-06T16:24:40.804Z,16.43
2018-11-06T16:27:08.479Z,15.23
2018-11-06T16:29:36.216Z,17.53
2018-11-06T16:32:04.078Z,14.57
2018-11-06T16:34:32.721Z,17.43
2018-11-06T16:37:00.546Z,15.40
2018-11-06T16:39:28.640Z,15.70
2018-11-06T16:41:56.387Z,13.53
2018-11-06T16:44:24.144Z,14.53
2018-11-06T16:46:51.945Z,14.17
2018-11-06T16:49:19.707Z,13.23
2018-11-06T16:51:47.380Z,11.90
2018-11-06T16:54:15.177Z,13.43
2018-11-06T16:56:42.894Z,14.70
2018-11-06T16:59:10.553Z,13.33
2018-11-06T17:01:38.329Z,13.53
2018-11-06T17:04:06.229Z,13.50
2018-11-06T17:06:39.933Z,12.33
2018-11-06T17:09:09.445Z,13.23
2018-11-06T17:11:37.869Z,13.10
2018-11-06T17:14:06.724Z,14.13
2018-11-06T17:16:34.953Z,11.40
2018-11-06T17:19:03.510Z,14.03
2018-11-06T17:21:32.393Z,13.77
2018-11-06T17:24:00.217Z,11.43
2018-11-06T17:26:27.955Z,12.47
2018-11-06T17:28:55.663Z,13.43
2018-11-06T17:31:23.547Z,14.30
2018-11-06T17:33:51.421Z,14.93
2018-11-06T17:36:19.207Z,15.03
2018-11-06T17:38:46.933Z,13.83
2018-11-06T17:41:16.175Z,12.67
2018-11-06T17:43:44.766Z,12.43
2018-11-06T17:46:12.538Z,12.90
2018-11-06T17:48:40.792Z,14.23
2018-11-06T17:51:08.461Z,13.57
2018-11-06T17:53:36.798Z,16.53
2018-11-06T17:56:06.596Z,14.90
2018-11-06T17:58:34.599Z,15.53
2018-11-06T18:01:02.533Z,13.40
2018-11-06T18:03:30.674Z,12.97
2018-11-06T18:05:58.722Z,11.50
2018-11-06T18:08:26.970Z,10.63
2018-11-06T18:10:54.885Z,14.17
2018-11-06T18:13:23.902Z,9.43
2018-11-06T18:15:51.665Z,10.77
2018-11-06T18:18:20.400Z,10.60
2018-11-06T18:20:48.378Z,9.10
2018-11-06T18:23:16.570Z,9.77
2018-11-06T18:25:44.382Z,9.57
2018-11-06T18:28:12.048Z,9.97
2018-11-06T18:30:39.815Z,11.47
2018-11-06T18:33:07.567Z,9.37
2018-11-06T18:35:35.944Z,10.30
2018-11-06T18:38:03.778Z,7.87
2018-11-06T18:40:32.200Z,12.07
2018-11-06T18:43:00.294Z,9.90
2018-11-06T18:45:28.278Z,12.23
2018-11-06T18:47:56.102Z,14.43
2018-11-06T18:50:24.515Z,11.47
2018-11-06T18:52:52.974Z,12.63
2018-11-06T18:55:21.318Z,12.33
2018-11-06T18:57:49.096Z,10.77
2018-11-06T19:00:18.837Z,11.10
2018-11-06T19:02:47.678Z,13.57
2018-11-06T19:05:15.994Z,11.27
2018-11-06T19:07:43.733Z,11.87
2018-11-06T19:10:12.687Z,11.20
2018-11-06T19:12:40.593Z,9.67
2018-11-06T19:15:12.097Z,10.20
2018-11-06T19:17:41.174Z,10.23
2018-11-06T19:20:10.975Z,8.63
2018-11-06T19:22:39.401Z,9.97
2018-11-06T19:25:08.371Z,11.37
2018-11-06T19:27:36.202Z,10.03
2018-11-06T19:30:06.215Z,9.70
2018-11-06T19:32:35.005Z,9.07
2018-11-06T19:35:02.801Z,11.43
2018-11-06T19:37:30.566Z,10.57
2018-11-06T19:39:58.341Z,11.30
2018-11-06T19:42:26.153Z,11.17
2018-11-06T19:44:54.126Z,8.90
2018-11-06T19:47:21.892Z,12.83
2018-11-06T19:49:49.807Z,11.03
2018-11-06T19:52:17.658Z,14.57
2018-11-06T19:54:45.431Z,11.33
2018-11-06T19:57:13.081Z,10.60
2018-11-06T19:59:40.768Z,11.37
2018-11-06T20:02:08.681Z,10.63
2018-11-06T20:04:36.728Z,13.57
2018-11-06T20:07:04.457Z,9.90
2018-11-06T20:09:32.675Z,11.97
2018-11-06T20:12:00.589Z,11.83
2018-11-06T20:14:28.377Z,10.63
2018-11-06T20:16:56.258Z,10.67
2018-11-06T20:19:24.021Z,11.27
2018-11-06T20:21:51.888Z,11.77
2018-11-06T20:24:19.819Z,11.80
2018-11-06T20:26:49.390Z,13.20
2018-11-06T20:29:17.166Z,11.77
2018-11-06T20:31:45.256Z,12.37
2018-11-06T20:34:13.293Z,12.63
2018-11-06T20:36:41.193Z,10.10
2018-11-06T20:39:10.114Z,10.60
2018-11-06T20:41:40.440Z,11.40
2018-11-06T20:44:11.077Z,10.77
2018-11-06T20:46:39.311Z,12.73
2018-11-06T20:49:07.217Z,11.53
2018-11-06T20:51:35.126Z,10.10
2018-11-06T20:54:03.021Z,11.40
2018-11-06T20:56:31.141Z,9.93
2018-11-06T20:58:58.867Z,11.57
2018-11-06T21:01:27.869Z,13.00
2018-11-06T21:03:55.638Z,11.33
2018-11-06T21:06:23.450Z,11.87
2018-11-06T21:08:51.201Z,10.63
2018-11-06T21:11:18.847Z,11.90
2018-11-06T21:13:46.664Z,13.30
2018-11-06T21:16:14.396Z,10.80
2018-11-06T21:18:43.381Z,10.60
2018-11-06T21:21:11.179Z,11.83
2018-11-06T21:23:39.204Z,10.67
2018-11-06T21:26:07.679Z,10.33
2018-11-06T21:28:35.428Z,12.30
2018-11-06T21:31:03.288Z,12.87
2018-11-06T21:33:31.081Z,11.40
2018-11-06T21:35:58.842Z,12.97
2018-11-06T21:38:26.593Z,9.90
2018-11-06T21:40:54.449Z,10.37
2018-11-06T21:43:22.126Z,11.13
2018-11-06T21:45:49.895Z,12.63
2018-11-06T21:48:17.537Z,12.73
2018-11-06T21:50:45.176Z,11.17
2018-11-06T21:53:15.020Z,10.93
2018-11-06T21:55:42.792Z,12.77
2018-11-06T21:58:10.545Z,12.07
2018-11-06T22:00:38.266Z,12.17
2018-11-06T22:03:06.007Z,10.30
2018-11-06T22:05:33.639Z,11.23
2018-11-06T22:08:01.407Z,10.27
2018-11-06T22:10:29.147Z,11.10
2018-11-06T22:12:56.958Z,11.50
2018-11-06T22:15:25.309Z,10.87
2018-11-06T22:17:53.074Z,11.73
2018-11-06T22:20:20.676Z,12.33
2018-11-06T22:22:48.861Z,11.97
2018-11-06T22:25:16.581Z,13.10
2018-11-06T22:27:44.368Z,12.37
2018-11-06T22:30:13.386Z,11.80
2018-11-06T22:32:41.995Z,12.60
2018-11-06T22:35:11.305Z,11.70
2018-11-06T22:37:39.054Z,11.97
2018-11-06T22:40:07.181Z,12.50
2018-11-06T22:42:35.013Z,11.90
2018-11-06T22:45:02.740Z,12.90
2018-11-06T22:47:30.501Z,12.17
2018-11-06T22:49:58.257Z,10.90
2018-11-06T22:52:26.002Z,12.87
2018-11-06T22:54:54.089Z,13.20
2018-11-06T22:57:21.963Z,15.63
2018-11-06T22:59:49.739Z,14.67
2018-11-06T23:02:17.486Z,11.60
2018-11-06T23:04:45.248Z,13.37
2018-11-06T23:07:18.583Z,13.67
2018-11-06T23:09:46.328Z,11.63
2018-11-06T23:12:14.093Z,12.33
2018-11-06T23:14:41.831Z,15.70
2018-11-06T23:17:09.585Z,14.70
2018-11-06T23:19:37.356Z,13.30
2018-11-06T23:22:05.198Z,11.50
2018-11-06T23:24:32.944Z,15.13
2018-11-06T23:27:00.644Z,14.47
2018-11-06T23:29:28.444Z,13.67
2018-11-06T23:31:56.170Z,15.03
2018-11-06T23:34:23.841Z,15.17
2018-11-06T23:36:51.582Z,12.07
2018-11-06T23:39:19.350Z,13.33
2018-11-06T23:41:46.971Z,15.17
2018-11-06T23:44:14.694Z,12.80
2018-11-06T23:46:42.401Z,13.30
2018-11-06T23:49:10.884Z,12.47
2018-11-06T23:51:38.710Z,13.23
2018-11-06T23:54:06.326Z,13.93
2018-11-06T23:56:34.136Z,16.83
2018-11-06T23:59:01.821Z,14.30
